createdAt,value
2022-12-23T00:01:33.076Z,6.95
2022-12-23T00:04:01.024Z,6.97
2022-12-23T00:06:28.527Z,7.00
2022-12-23T00:08:59.285Z,7.00
2022-12-23T00:11:28.481Z,6.99
2022-12-23T00:14:20.642Z,7.00
2022-12-23T00:16:50.953Z,6.98
2022-12-23T00:19:18.505Z,6.96
2022-12-23T00:21:45.952Z,6.97
2022-12-23T00:24:13.244Z,6.94
2022-12-23T00:26:48.883Z,6.92
2022-12-23T00:29:16.398Z,6.94
2022-12-23T00:31:43.589Z,6.95
2022-12-23T00:34:13.253Z,6.97
2022-12-23T00:36:41.037Z,6.97
2022-12-23T00:39:45.197Z,6.96
2022-12-23T00:42:30.885Z,6.99
2022-12-23T00:45:16.095Z,7.03
2022-12-23T00:48:03.926Z,7.05
2022-12-23T00:50:36.315Z,7.06
2022-12-23T00:53:10.080Z,7.10
2022-12-23T00:55:37.482Z,7.12
2022-12-23T00:58:04.674Z,7.14
2022-12-23T01:00:50.724Z,7.15
2022-12-23T01:03:36.894Z,7.17
2022-12-23T01:06:04.314Z,7.16
2022-12-23T01:08:31.611Z,7.18
2022-12-23T01:14:25.922Z,7.15
2022-12-23T01:16:53.838Z,7.14
2022-12-23T01:19:21.467Z,7.12
2022-12-23T01:21:49.152Z,7.11
2022-12-23T01:24:17.174Z,7.08
2022-12-23T01:26:44.995Z,7.06
2022-12-23T01:29:15.387Z,7.03
2022-12-23T01:31:43.168Z,7.01
2022-12-23T01:34:10.623Z,6.99
2022-12-23T01:36:38.434Z,6.98
2022-12-23T01:39:05.967Z,6.97
2022-12-23T01:41:53.316Z,6.96
2022-12-23T01:45:03.653Z,6.93
2022-12-23T01:47:35.914Z,6.95
2022-12-23T01:50:12.142Z,6.93
2022-12-23T01:52:50.626Z,6.94
2022-12-23T01:55:22.358Z,6.96
2022-12-23T01:57:50.432Z,6.97
2022-12-23T02:00:36.324Z,6.97
2022-12-23T02:03:22.071Z,6.96
2022-12-23T02:05:50.295Z,6.95
2022-12-23T02:08:37.193Z,6.94
2022-12-23T02:12:11.272Z,6.92
2022-12-23T02:15:36.481Z,6.86
2022-12-23T02:18:11.188Z,6.84
2022-12-23T02:20:46.913Z,6.83
2022-12-23T02:23:16.874Z,6.84
2022-12-23T02:26:11.524Z,6.82
2022-12-23T02:28:53.398Z,6.83
2022-12-23T02:31:29.217Z,6.83
2022-12-23T02:34:18.136Z,6.82
2022-12-23T02:36:57.646Z,6.83
2022-12-23T02:39:35.875Z,6.84
2022-12-23T02:42:18.522Z,6.82
2022-12-23T02:45:04.215Z,6.79
2022-12-23T02:47:42.233Z,6.75
2022-12-23T02:50:19.664Z,6.70
2022-12-23T02:52:49.685Z,6.66
2022-12-23T02:55:29.485Z,6.61
2022-12-23T02:58:00.812Z,6.57
2022-12-23T03:00:28.187Z,6.55
2022-12-23T03:02:55.286Z,6.51
2022-12-23T03:05:41.595Z,6.52
2022-12-23T03:08:21.075Z,6.56
2022-12-23T03:11:14.764Z,6.56
2022-12-23T03:14:10.335Z,6.57
2022-12-23T03:17:15.260Z,6.60
2022-12-23T03:20:19.654Z,6.58
2022-12-23T03:23:15.926Z,6.57
2022-12-23T03:26:33.668Z,6.58
2022-12-23T03:29:13.140Z,6.63
2022-12-23T03:31:41.587Z,6.64
2022-12-23T03:34:23.072Z,6.65
2022-12-23T03:36:54.033Z,6.66
2022-12-23T03:39:28.381Z,6.68
2022-12-23T03:42:04.125Z,6.69
2022-12-23T03:44:40.298Z,6.70
2022-12-23T03:47:13.778Z,6.71
2022-12-23T03:49:48.286Z,6.73
2022-12-23T03:52:50.397Z,6.74
2022-12-23T03:55:33.089Z,6.76
2022-12-23T03:58:29.627Z,6.77
2022-12-23T04:01:06.023Z,6.79
2022-12-23T04:03:51.048Z,6.79
2022-12-23T04:06:20.670Z,6.78
2022-12-23T04:08:49.707Z,6.78
2022-12-23T04:11:17.304Z,6.79
2022-12-23T04:13:44.399Z,6.78
2022-12-23T04:16:11.520Z,6.81
2022-12-23T04:18:38.567Z,6.82
2022-12-23T04:21:05.835Z,6.83
2022-12-23T04:23:32.851Z,6.84
2022-12-23T04:25:59.919Z,6.84
2022-12-23T04:28:26.893Z,6.84
2022-12-23T04:30:53.936Z,6.85
2022-12-23T04:33:21.389Z,6.85
2022-12-23T04:35:48.346Z,6.86
2022-12-23T04:38:15.442Z,6.88
2022-12-23T04:40:47.984Z,6.88
2022-12-23T04:43:15.476Z,6.90
2022-12-23T04:45:42.486Z,6.91
2022-12-23T04:48:09.579Z,6.93
2022-12-23T04:50:36.527Z,6.93
2022-12-23T04:53:03.388Z,6.93
2022-12-23T04:55:30.285Z,6.91
2022-12-23T04:57:57.195Z,6.90
2022-12-23T05:00:24.281Z,6.91
2022-12-23T05:02:51.290Z,6.91
2022-12-23T05:05:18.330Z,6.94
2022-12-23T05:07:45.311Z,6.94
2022-12-23T05:10:12.216Z,6.96
2022-12-23T05:12:39.149Z,6.96
2022-12-23T05:15:07.174Z,6.95
2022-12-23T05:17:34.443Z,6.96
2022-12-23T05:20:01.317Z,6.96
2022-12-23T05:22:28.218Z,6.98
2022-12-23T05:24:55.124Z,7.00
2022-12-23T05:27:22.044Z,7.02
2022-12-23T05:29:48.961Z,7.05
2022-12-23T05:32:16.827Z,7.06
2022-12-23T05:34:43.773Z,7.07
2022-12-23T05:37:10.700Z,7.11
2022-12-23T05:39:37.735Z,7.11
2022-12-23T05:42:05.780Z,7.14
2022-12-23T05:44:33.142Z,7.17
2022-12-23T05:47:00.356Z,7.21
2022-12-23T05:49:28.354Z,7.22
2022-12-23T05:51:55.963Z,7.26
2022-12-23T05:54:23.543Z,7.29
2022-12-23T05:56:51.144Z,7.31
2022-12-23T05:59:19.362Z,7.31
2022-12-23T06:01:46.942Z,7.34
2022-12-23T06:04:14.740Z,7.35
2022-12-23T06:06:51.118Z,7.38
2022-12-23T06:09:18.370Z,7.40
2022-12-23T06:11:45.813Z,7.42
2022-12-23T06:14:13.474Z,7.46
2022-12-23T06:16:40.768Z,7.50
2022-12-23T06:19:08.420Z,7.51
2022-12-23T06:21:35.763Z,7.52
2022-12-23T06:24:03.530Z,7.54
2022-12-23T06:26:30.896Z,7.57
2022-12-23T06:28:58.275Z,7.59
2022-12-23T06:31:25.612Z,7.61
2022-12-23T06:33:52.863Z,7.62
2022-12-23T06:36:20.236Z,7.63
2022-12-23T06:38:47.669Z,7.62
2022-12-23T06:41:15.533Z,7.61
2022-12-23T06:43:42.890Z,7.62
2022-12-23T06:46:10.178Z,7.64
2022-12-23T06:48:37.617Z,7.65
2022-12-23T06:51:05.337Z,7.68
2022-12-23T06:53:32.529Z,7.69
2022-12-23T06:56:02.222Z,7.70
2022-12-23T06:58:29.501Z,7.70
2022-12-23T07:00:57.137Z,7.70
2022-12-23T07:03:24.994Z,7.72
2022-12-23T07:05:52.682Z,7.72
2022-12-23T07:08:20.653Z,7.73
2022-12-23T07:10:50.988Z,7.72
2022-12-23T07:13:18.465Z,7.72
2022-12-23T07:15:46.016Z,7.70
2022-12-23T07:18:13.123Z,7.67
2022-12-23T07:20:40.541Z,7.67
2022-12-23T07:23:08.072Z,7.65
2022-12-23T07:25:35.207Z,7.64
2022-12-23T07:28:02.561Z,7.62
2022-12-23T07:30:29.970Z,7.64
2022-12-23T07:32:57.134Z,7.63
2022-12-23T07:35:24.348Z,7.65
2022-12-23T07:37:54.045Z,7.65
2022-12-23T07:40:24.589Z,7.67
2022-12-23T07:42:56.630Z,7.67
2022-12-23T07:45:27.841Z,7.67
2022-12-23T07:48:00.969Z,7.67
2022-12-23T07:50:28.505Z,7.68
2022-12-23T07:52:56.562Z,7.67
2022-12-23T07:55:23.885Z,7.67
2022-12-23T07:57:52.420Z,7.68
2022-12-23T08:00:21.239Z,7.66
2022-12-23T08:02:48.594Z,7.66
2022-12-23T08:05:16.894Z,7.67
2022-12-23T08:07:45.439Z,7.69
2022-12-23T08:10:13.194Z,7.70
2022-12-23T08:12:40.442Z,7.71
2022-12-23T08:15:09.503Z,7.72
2022-12-23T08:17:40.164Z,7.71
2022-12-23T08:20:08.400Z,7.77
2022-12-23T08:22:35.644Z,7.79
2022-12-23T08:25:03.259Z,7.82
2022-12-23T08:27:30.896Z,7.84
2022-12-23T08:29:58.669Z,7.85
2022-12-23T08:32:29.477Z,7.83
2022-12-23T08:35:01.514Z,7.83
2022-12-23T08:37:28.896Z,7.87
2022-12-23T08:39:56.400Z,7.91
2022-12-23T08:42:23.766Z,7.95
2022-12-23T08:44:51.136Z,7.98
2022-12-23T08:47:18.703Z,8.00
2022-12-23T08:49:50.178Z,8.05
2022-12-23T08:52:17.635Z,8.09
2022-12-23T08:54:49.224Z,8.09
2022-12-23T08:57:22.921Z,8.09
2022-12-23T08:59:52.197Z,8.11
2022-12-23T09:02:22.393Z,8.10
2022-12-23T09:04:49.877Z,8.08
2022-12-23T09:07:17.226Z,8.10
2022-12-23T09:09:44.736Z,8.11
2022-12-23T09:12:11.982Z,8.11
2022-12-23T09:14:47.877Z,8.04
2022-12-23T09:17:18.020Z,8.03
2022-12-23T09:19:52.759Z,8.07
2022-12-23T09:22:26.751Z,8.10
2022-12-23T09:24:58.660Z,8.12
2022-12-23T09:27:33.084Z,8.12
2022-12-23T09:30:04.314Z,8.09
2022-12-23T09:32:33.279Z,8.10
2022-12-23T09:35:00.837Z,8.12
2022-12-23T09:37:28.479Z,8.15
2022-12-23T09:39:55.953Z,8.17
2022-12-23T09:43:19.136Z,8.06
2022-12-23T09:46:27.037Z,8.02
2022-12-23T09:49:14.355Z,8.05
2022-12-23T09:51:41.759Z,8.10
2022-12-23T09:54:29.027Z,8.14
2022-12-23T09:57:30.206Z,8.20
2022-12-23T10:00:07.503Z,8.21
2022-12-23T10:03:26.031Z,8.16
2022-12-23T10:06:07.827Z,8.13
2022-12-23T10:08:42.066Z,8.14
2022-12-23T10:11:24.149Z,8.16
2022-12-23T10:14:20.568Z,8.18
2022-12-23T10:17:10.576Z,8.19
2022-12-23T10:19:46.023Z,8.18
2022-12-23T10:22:40.403Z,8.16
2022-12-23T10:25:36.750Z,8.16
2022-12-23T10:31:39.392Z,8.21
2022-12-23T10:34:43.165Z,8.24
2022-12-23T10:37:22.588Z,8.34
2022-12-23T10:40:25.848Z,8.46
2022-12-23T10:43:18.142Z,8.59
2022-12-23T10:46:07.342Z,8.74
2022-12-23T10:49:18.381Z,8.86
2022-12-23T10:51:58.847Z,8.92
2022-12-23T10:54:44.324Z,8.97
2022-12-23T10:57:16.179Z,8.97
2022-12-23T10:59:47.318Z,8.95
2022-12-23T11:02:20.777Z,8.91
2022-12-23T11:04:53.639Z,8.93
2022-12-23T11:07:46.378Z,9.00
2022-12-23T11:10:21.452Z,9.06
2022-12-23T11:12:53.488Z,9.10
2022-12-23T11:15:38.540Z,9.09
2022-12-23T11:18:11.503Z,9.03
2022-12-23T11:20:42.768Z,8.99
2022-12-23T11:23:31.913Z,8.93
2022-12-23T11:26:07.182Z,8.89
2022-12-23T11:28:48.166Z,8.83
2022-12-23T11:31:17.161Z,8.77
2022-12-23T11:33:59.073Z,8.77
2022-12-23T11:36:32.533Z,8.73
2022-12-23T11:39:28.997Z,8.68
2022-12-23T11:42:26.999Z,8.64
2022-12-23T11:44:58.421Z,8.63
2022-12-23T11:47:44.488Z,8.61
2022-12-23T11:50:30.745Z,8.61
2022-12-23T11:53:23.685Z,8.59
2022-12-23T11:56:05.876Z,8.58
2022-12-23T11:59:26.327Z,8.53
2022-12-23T12:01:58.439Z,8.54
2022-12-23T12:04:29.336Z,8.54
2022-12-23T12:06:57.077Z,8.53
2022-12-23T12:09:25.888Z,8.49
2022-12-23T12:12:21.447Z,8.46
2022-12-23T12:15:46.045Z,8.44
2022-12-23T12:18:26.633Z,8.43
2022-12-23T12:21:02.624Z,8.45
2022-12-23T12:24:29.755Z,8.46
2022-12-23T12:27:11.817Z,8.46
2022-12-23T12:33:57.121Z,8.47
2022-12-23T12:37:23.826Z,8.56
2022-12-23T12:40:08.146Z,8.67
2022-12-23T12:42:58.650Z,8.70
2022-12-23T12:45:45.301Z,8.75
2022-12-23T12:52:32.586Z,8.75
2022-12-23T12:55:18.407Z,8.68
2022-12-23T12:57:46.441Z,8.63
2022-12-23T13:01:42.903Z,8.59
2022-12-23T13:04:40.249Z,8.53
2022-12-23T13:07:46.246Z,8.47
2022-12-23T13:10:49.200Z,8.45
2022-12-23T13:14:18.098Z,8.48
2022-12-23T13:17:20.649Z,8.49
2022-12-23T13:20:30.446Z,8.50
2022-12-23T13:23:44.069Z,8.48
2022-12-23T13:26:58.344Z,8.46
2022-12-23T13:30:12.264Z,8.43
2022-12-23T13:32:43.935Z,8.45
2022-12-23T13:39:36.810Z,8.45
2022-12-23T13:42:12.048Z,8.46
2022-12-23T13:44:45.753Z,8.45
2022-12-23T13:47:46.134Z,8.46
2022-12-23T13:50:43.470Z,8.46
2022-12-23T13:54:04.152Z,8.44
2022-12-23T13:56:51.103Z,8.42
2022-12-23T13:59:19.469Z,8.43
2022-12-23T14:01:59.278Z,8.45
2022-12-23T14:05:16.627Z,8.44
2022-12-23T14:07:54.942Z,8.45
2022-12-23T14:10:32.627Z,8.44
2022-12-23T14:13:14.984Z,8.44
2022-12-23T14:15:56.979Z,8.47
2022-12-23T14:18:46.602Z,8.50
2022-12-23T14:21:45.251Z,8.49
2022-12-23T14:25:00.745Z,8.47
2022-12-23T14:28:46.970Z,8.47
2022-12-23T14:32:06.475Z,8.45
2022-12-23T14:34:38.308Z,8.46
2022-12-23T14:37:24.540Z,8.44
2022-12-23T14:39:59.682Z,8.43
2022-12-23T14:42:49.046Z,8.39
2022-12-23T14:45:35.712Z,8.39
2022-12-23T14:48:34.418Z,8.36
2022-12-23T14:51:34.194Z,8.31
2022-12-23T14:54:14.710Z,8.28
2022-12-23T14:56:58.520Z,8.28
2022-12-23T15:00:03.128Z,8.27
2022-12-23T15:02:43.024Z,8.27
2022-12-23T15:05:17.097Z,8.25
2022-12-23T15:07:47.845Z,8.25
2022-12-23T15:10:25.853Z,8.24
2022-12-23T15:13:03.205Z,8.24
2022-12-23T15:15:31.651Z,8.21
2022-12-23T15:18:12.024Z,8.19
2022-12-23T15:20:41.088Z,8.15
2022-12-23T15:23:17.206Z,8.09
2022-12-23T15:25:48.262Z,8.04
2022-12-23T15:28:25.190Z,7.97
2022-12-23T15:31:00.889Z,7.92
2022-12-23T15:34:02.247Z,7.86
2022-12-23T15:36:43.693Z,7.80
2022-12-23T15:39:28.288Z,7.71
2022-12-23T15:42:05.008Z,7.64
2022-12-23T15:44:39.388Z,7.59
2022-12-23T15:47:30.912Z,7.54
2022-12-23T15:50:03.034Z,7.50
2022-12-23T15:52:31.819Z,7.46
2022-12-23T15:55:11.696Z,7.41
2022-12-23T15:57:50.025Z,7.38
2022-12-23T16:00:39.399Z,7.36
2022-12-23T16:03:23.216Z,7.31
2022-12-23T16:05:54.204Z,7.27
2022-12-23T16:08:30.203Z,7.25
2022-12-23T16:11:20.633Z,7.24
2022-12-23T16:14:02.745Z,7.25
2022-12-23T16:16:43.329Z,7.26
2022-12-23T16:19:43.100Z,7.31
2022-12-23T16:22:37.827Z,7.37
2022-12-23T16:25:34.055Z,7.44
2022-12-23T16:28:21.978Z,7.50
2022-12-23T16:31:29.934Z,7.54
2022-12-23T16:34:19.757Z,7.58
2022-12-23T16:36:50.479Z,7.64
2022-12-23T16:39:23.580Z,7.65
2022-12-23T16:41:51.678Z,7.66
2022-12-23T16:44:20.194Z,7.69
2022-12-23T16:46:52.332Z,7.72
2022-12-23T16:49:31.202Z,7.74
2022-12-23T16:52:06.266Z,7.75
2022-12-23T16:54:34.026Z,7.78
2022-12-23T16:57:02.376Z,7.79
2022-12-23T16:59:30.171Z,7.81
2022-12-23T17:02:03.818Z,7.83
2022-12-23T17:04:31.845Z,7.84
2022-12-23T17:06:59.450Z,7.84
2022-12-23T17:09:30.020Z,7.84
2022-12-23T17:11:57.582Z,7.84
2022-12-23T17:14:26.384Z,7.85
2022-12-23T17:16:54.088Z,7.83
2022-12-23T17:19:27.649Z,7.83
2022-12-23T17:22:03.470Z,7.83
2022-12-23T17:24:31.321Z,7.82
2022-12-23T17:26:58.615Z,7.80
2022-12-23T17:29:26.393Z,7.80
2022-12-23T17:31:54.312Z,7.81
2022-12-23T17:34:24.615Z,7.81
2022-12-23T17:36:53.412Z,7.79
2022-12-23T17:39:25.124Z,7.79
2022-12-23T17:41:59.047Z,7.77
2022-12-23T17:44:29.627Z,7.77
2022-12-23T17:46:59.181Z,7.76
2022-12-23T17:49:26.083Z,7.76
2022-12-23T17:51:54.216Z,7.74
2022-12-23T17:54:26.647Z,7.71
2022-12-23T17:57:01.361Z,7.66
2022-12-23T17:59:58.669Z,7.57
2022-12-23T18:02:36.902Z,7.52
2022-12-23T18:06:13.199Z,7.49
2022-12-23T18:08:48.378Z,7.48
2022-12-23T18:11:42.898Z,7.46
2022-12-23T18:14:39.764Z,7.47
2022-12-23T18:17:14.664Z,7.48
2022-12-23T18:19:46.529Z,7.47
2022-12-23T18:22:22.339Z,7.47
2022-12-23T18:24:57.017Z,7.46
2022-12-23T18:27:35.753Z,7.47
2022-12-23T18:30:03.123Z,7.46
2022-12-23T18:32:33.153Z,7.46
2022-12-23T18:35:01.011Z,7.48
2022-12-23T18:37:28.895Z,7.51
2022-12-23T18:40:07.996Z,7.52
2022-12-23T18:42:41.909Z,7.51
2022-12-23T18:45:42.080Z,7.51
2022-12-23T18:48:10.308Z,7.54
2022-12-23T18:50:40.522Z,7.54
2022-12-23T18:53:23.102Z,7.53
2022-12-23T18:55:52.661Z,7.50
2022-12-23T18:58:20.817Z,7.47
2022-12-23T19:00:50.115Z,7.43
2022-12-23T19:03:33.383Z,7.40
2022-12-23T19:06:11.356Z,7.39
2022-12-23T19:08:39.084Z,7.37
2022-12-23T19:11:18.902Z,7.33
2022-12-23T19:13:46.573Z,7.31
2022-12-23T19:16:17.408Z,7.30
2022-12-23T19:18:45.904Z,7.27
2022-12-23T19:21:13.334Z,7.25
2022-12-23T19:23:41.429Z,7.23
2022-12-23T19:26:14.103Z,7.21
2022-12-23T19:28:41.974Z,7.21
2022-12-23T19:31:14.625Z,7.20
2022-12-23T19:33:44.589Z,7.13
2022-12-23T19:36:19.562Z,7.10
2022-12-23T19:38:48.403Z,7.07
2022-12-23T19:41:15.402Z,7.04
2022-12-23T19:43:45.280Z,6.98
2022-12-23T19:46:14.097Z,6.95
2022-12-23T19:48:41.627Z,6.95
2022-12-23T19:51:11.292Z,6.95
2022-12-23T19:53:40.671Z,6.95
2022-12-23T19:56:14.164Z,6.97
2022-12-23T19:58:44.077Z,7.00
2022-12-23T20:01:25.107Z,6.98
2022-12-23T20:03:54.559Z,6.96
2022-12-23T20:06:26.735Z,6.96
2022-12-23T20:09:00.128Z,6.94
2022-12-23T20:11:30.649Z,6.90
2022-12-23T20:13:58.429Z,6.88
2022-12-23T20:16:26.534Z,6.84
2022-12-23T20:18:53.982Z,6.82
2022-12-23T20:21:21.621Z,6.78
2022-12-23T20:23:49.775Z,6.75
2022-12-23T20:26:18.846Z,6.71
2022-12-23T20:28:46.640Z,6.68
2022-12-23T20:31:19.106Z,6.64
2022-12-23T20:33:48.427Z,6.64
2022-12-23T20:36:18.088Z,6.57
2022-12-23T20:38:46.984Z,6.54
2022-12-23T20:41:18.073Z,6.50
2022-12-23T20:43:56.934Z,6.50
2022-12-23T20:46:32.625Z,6.47
2022-12-23T20:48:59.687Z,6.45
2022-12-23T20:51:26.790Z,6.45
2022-12-23T20:53:59.827Z,6.44
2022-12-23T20:56:29.373Z,6.44
2022-12-23T20:59:00.248Z,6.47
2022-12-23T21:01:35.795Z,6.49
2022-12-23T21:04:10.248Z,6.49
2022-12-23T21:06:37.833Z,6.50
2022-12-23T21:09:07.174Z,6.49
2022-12-23T21:11:39.590Z,6.49
2022-12-23T21:14:07.806Z,6.50
2022-12-23T21:16:37.341Z,6.50
2022-12-23T21:19:06.751Z,6.48
2022-12-23T21:21:34.028Z,6.47
2022-12-23T21:24:04.281Z,6.46
2022-12-23T21:26:33.416Z,6.43
2022-12-23T21:29:03.789Z,6.41
2022-12-23T21:31:33.491Z,6.40
2022-12-23T21:34:01.067Z,6.38
2022-12-23T21:36:36.689Z,6.36
2022-12-23T21:39:05.599Z,6.32
2022-12-23T21:41:37.204Z,6.29
2022-12-23T21:44:05.286Z,6.29
2022-12-23T21:46:32.483Z,6.27
2022-12-23T21:48:59.921Z,6.32
2022-12-23T21:51:40.219Z,6.31
2022-12-23T21:54:09.617Z,6.27
2022-12-23T21:56:37.191Z,6.23
2022-12-23T21:59:08.126Z,6.21
2022-12-23T22:01:35.802Z,6.18
2022-12-23T22:04:03.443Z,6.19
2022-12-23T22:06:36.023Z,6.17
2022-12-23T22:09:04.917Z,6.17
2022-12-23T22:11:35.227Z,6.14
2022-12-23T22:14:05.177Z,6.10
2022-12-23T22:16:35.868Z,6.05
2022-12-23T22:19:04.967Z,6.03
2022-12-23T22:21:35.794Z,5.99
2022-12-23T22:24:03.628Z,5.95
2022-12-23T22:26:33.269Z,5.91
2022-12-23T22:29:03.778Z,5.89
2022-12-23T22:31:33.382Z,5.89
2022-12-23T22:34:00.601Z,5.87
2022-12-23T22:36:28.582Z,5.84
2022-12-23T22:38:59.258Z,5.83
2022-12-23T22:41:28.383Z,5.84
2022-12-23T22:43:57.161Z,5.83
2022-12-23T22:46:25.186Z,5.81
2022-12-23T22:48:53.324Z,5.79
2022-12-23T22:51:27.564Z,5.79
2022-12-23T22:53:55.837Z,5.78
2022-12-23T22:56:24.588Z,5.79
2022-12-23T22:58:53.781Z,5.82
2022-12-23T23:01:28.526Z,5.84
2022-12-23T23:03:57.893Z,5.85
2022-12-23T23:06:37.577Z,5.85
2022-12-23T23:09:07.788Z,5.84
2022-12-23T23:11:34.996Z,5.84
2022-12-23T23:14:02.000Z,5.83
2022-12-23T23:16:29.011Z,5.84
2022-12-23T23:18:56.621Z,5.85
2022-12-23T23:21:23.602Z,5.87
2022-12-23T23:23:50.883Z,5.85
2022-12-23T23:26:19.531Z,5.83
2022-12-23T23:28:46.816Z,5.84
2022-12-23T23:34:00.978Z,5.85
2022-12-23T23:36:27.967Z,5.86
2022-12-23T23:38:54.955Z,5.87
2022-12-23T23:41:23.654Z,5.86
2022-12-23T23:43:51.969Z,5.84
2022-12-23T23:46:19.110Z,5.81
2022-12-23T23:48:46.139Z,5.79
2022-12-23T23:51:13.092Z,5.80
2022-12-23T23:53:40.606Z,5.77
2022-12-23T23:56:08.667Z,5.74
2022-12-23T23:58:37.360Z,5.76
